Time;durP1;ratioP1;P1;durP2;ratioP2;P2;SDS_P1;SDS_P2;PMS_P1;PMS_P2;Temp;Humidity;BMP_temperature;BMP_pressure;BME280_temperature;BME280_humidity;BME280_pressure;Samples;Min_cycle;Max_cycle;Signal;HPM_P1;HPM_P2
2022/12/23 05:11:28;;;;;;;82.78;27.67;;;;;;;3.10;100.00;100021.00;5253318;33;32292;-84
2022/12/23 05:14:31;;;;;;;95.35;28.67;;;;;;;3.06;100.00;100037.37;5255047;33;35055;-84
2022/12/23 05:17:34;;;;;;;135.57;27.50;;;;;;;2.99;100.00;100033.59;5254839;33;34531;-84
2022/12/23 05:20:37;;;;;;;86.55;29.42;;;;;;;2.94;100.00;100042.81;5255223;33;33937;-84
2022/12/23 05:23:40;;;;;;;125.53;30.92;;;;;;;3.10;100.00;100039.63;5254781;33;33551;-84
2022/12/23 05:26:47;;;;;;;77.72;26.50;;;;;;;3.00;100.00;100045.91;5254819;33;33020;-83
2022/12/23 05:29:54;;;;;;;88.10;29.23;;;;;;;2.96;100.00;100040.03;5253973;33;33902;-83
2022/12/23 05:32:57;;;;;;;80.15;27.42;;;;;;;3.02;100.00;100044.78;5254888;33;33599;-84
2022/12/23 05:36:00;;;;;;;86.90;26.98;;;;;;;2.95;100.00;100033.00;5241336;33;33809;-83
2022/12/23 05:39:03;;;;;;;62.13;25.00;;;;;;;2.87;100.00;100027.56;5254341;33;34269;-83
2022/12/23 05:42:06;;;;;;;67.12;26.45;;;;;;;2.83;100.00;100037.59;5254942;33;33811;-83
2022/12/23 05:45:09;;;;;;;65.18;27.37;;;;;;;2.84;100.00;100030.50;5254677;33;33904;-83
2022/12/23 05:48:12;;;;;;;64.00;27.27;;;;;;;2.90;100.00;100037.91;5242039;33;33016;-83
2022/12/23 05:51:18;;;;;;;73.07;26.77;;;;;;;2.86;100.00;100032.00;5260776;33;34099;-84
2022/12/23 05:54:20;;;;;;;98.65;29.37;;;;;;;2.83;100.00;100039.44;5264688;33;35282;-84
2022/12/23 05:57:23;;;;;;;83.35;29.30;;;;;;;2.75;100.00;100042.78;5257349;33;34169;-83
2022/12/23 06:00:26;;;;;;;92.22;28.73;;;;;;;2.84;100.00;100055.25;5258366;33;34575;-83
2022/12/23 06:03:29;;;;;;;67.47;28.30;;;;;;;2.80;100.00;100050.34;5253822;33;34603;-83
2022/12/23 06:06:32;;;;;;;134.52;30.33;;;;;;;2.87;100.00;100070.09;5254609;33;34185;-83
2022/12/23 06:09:35;;;;;;;90.50;29.83;;;;;;;2.82;100.00;100056.38;5253748;33;34224;-84
2022/12/23 06:12:38;;;;;;;105.12;30.75;;;;;;;2.71;100.00;100059.97;5268521;33;35077;-83
2022/12/23 06:15:41;;;;;;;77.50;27.92;;;;;;;2.75;100.00;100052.56;5271709;33;33954;-83
2022/12/23 06:18:44;;;;;;;68.68;25.88;;;;;;;2.76;100.00;100052.44;5271602;33;33928;-84
2022/12/23 06:21:47;;;;;;;63.58;25.08;;;;;;;2.71;100.00;100050.16;5258545;33;32191;-83
2022/12/23 06:24:50;;;;;;;57.47;25.02;;;;;;;2.76;100.00;100048.94;5271448;33;34303;-83
2022/12/23 06:27:53;;;;;;;65.85;24.95;;;;;;;2.70;100.00;100053.81;5271836;33;33801;-84
2022/12/23 06:30:57;;;;;;;62.38;24.02;;;;;;;2.72;100.00;100045.69;5271042;33;34235;-83
2022/12/23 06:34:00;;;;;;;80.47;23.85;;;;;;;2.67;100.00;100058.56;5271923;33;34117;-85
2022/12/23 06:37:03;;;;;;;68.90;24.10;;;;;;;2.54;100.00;100053.47;5258681;33;32251;-83
2022/12/23 06:40:06;;;;;;;65.82;23.50;;;;;;;2.53;100.00;100050.94;5271639;33;33957;-84
2022/12/23 06:43:12;;;;;;;54.83;22.73;;;;;;;2.47;100.00;100047.84;5257669;33;33262;-83
2022/12/23 06:46:15;;;;;;;63.97;22.42;;;;;;;2.29;100.00;100060.09;5271335;33;34421;-83
2022/12/23 06:49:17;;;;;;;56.35;22.87;;;;;;;2.33;100.00;100058.84;5271290;33;34812;-83
2022/12/23 06:52:21;;;;;;;55.22;21.52;;;;;;;2.35;100.00;100067.53;5270603;33;34595;-84
2022/12/23 06:55:24;;;;;;;51.65;21.83;;;;;;;2.44;100.00;100069.38;5264997;33;33824;-86
2022/12/23 06:58:27;;;;;;;54.00;21.60;;;;;;;2.42;100.00;100068.66;5262645;33;287960;-88
2022/12/23 07:01:30;;;;;;;56.47;24.73;;;;;;;2.29;100.00;100064.56;5271567;33;34337;-88
2022/12/23 07:04:33;;;;;;;62.92;21.62;;;;;;;2.40;100.00;100064.44;5271542;33;34057;-88
2022/12/23 07:07:36;;;;;;;57.20;22.40;;;;;;;2.43;100.00;100075.69;5271494;33;33773;-84
2022/12/23 07:10:40;;;;;;;56.78;21.75;;;;;;;2.41;100.00;100085.59;5271420;33;33732;-84
2022/12/23 07:13:45;;;;;;;49.45;23.05;;;;;;;2.47;100.00;100090.38;5257952;33;32578;-84
2022/12/23 07:16:48;;;;;;;52.92;21.45;;;;;;;2.58;100.00;100104.56;5271190;33;33834;-84
2022/12/23 07:19:51;;;;;;;53.65;23.08;;;;;;;2.60;100.00;100100.75;5271008;33;34416;-84
2022/12/23 07:22:55;;;;;;;55.88;21.12;;;;;;;2.61;100.00;100101.63;5270589;33;34194;-84
2022/12/23 07:25:58;;;;;;;64.18;20.48;;;;;;;2.62;100.00;100103.28;5270933;33;34900;-84
2022/12/23 07:29:01;;;;;;;56.95;21.37;;;;;;;2.69;100.00;100109.75;5257867;33;33702;-84
2022/12/23 07:32:04;;;;;;;52.10;20.00;;;;;;;2.59;100.00;100106.22;5272222;33;33876;-84
2022/12/23 07:35:07;;;;;;;53.50;22.37;;;;;;;2.63;100.00;100102.31;5270875;33;34623;-84
2022/12/23 07:38:10;;;;;;;55.12;21.30;;;;;;;2.62;100.00;100090.00;5271113;33;33579;-84
2022/12/23 07:41:13;;;;;;;47.40;21.37;;;;;;;2.61;100.00;100083.84;5271611;33;34710;-84
2022/12/23 07:44:15;;;;;;;55.05;21.35;;;;;;;2.47;100.00;100076.25;5274175;33;34164;-84
2022/12/23 07:47:22;;;;;;;53.33;20.67;;;;;;;2.47;100.00;100074.41;5275781;33;33529;-83
2022/12/23 07:50:27;;;;;;;55.55;21.08;;;;;;;2.56;100.00;100079.91;5273492;33;34795;-84
2022/12/23 07:53:30;;;;;;;47.72;21.08;;;;;;;2.57;100.00;100085.09;5273471;33;33806;-83
2022/12/23 07:56:33;;;;;;;53.08;21.62;;;;;;;2.62;100.00;100090.84;5272862;33;34554;-84
2022/12/23 07:59:38;;;;;;;47.15;21.15;;;;;;;2.57;100.00;100073.63;5270639;33;34645;-84
2022/12/23 08:02:41;;;;;;;51.95;22.35;;;;;;;2.61;100.00;100072.38;5263303;33;32625;-84
2022/12/23 08:05:44;;;;;;;47.95;20.92;;;;;;;2.55;100.00;100078.25;5269676;33;34294;-83
2022/12/23 08:08:47;;;;;;;49.08;21.87;;;;;;;2.54;100.00;100076.53;5272295;33;34557;-84
2022/12/23 08:11:50;;;;;;;44.67;20.35;;;;;;;2.67;100.00;100083.31;5273699;33;34547;-84
2022/12/23 08:14:53;;;;;;;44.20;20.55;;;;;;;2.76;100.00;100070.19;5272333;33;33429;-84
2022/12/23 08:17:55;;;;;;;51.45;21.08;;;;;;;2.80;100.00;100061.81;5272353;33;33534;-83
2022/12/23 08:21:01;;;;;;;52.62;22.62;;;;;;;2.83;100.00;100061.53;5272897;33;33380;-83
2022/12/23 08:24:04;;;;;;;47.17;22.25;;;;;;;2.89;100.00;100058.31;5272924;33;34347;-83
2022/12/23 08:27:07;;;;;;;49.67;21.92;;;;;;;3.17;100.00;100050.56;5273229;33;33859;-83
2022/12/23 08:30:14;;;;;;;52.42;21.67;;;;;;;3.18;100.00;100069.00;5268508;33;33766;-83
2022/12/23 08:33:16;;;;;;;47.90;20.77;;;;;;;3.13;100.00;100065.97;5259659;33;32408;-83
2022/12/23 08:36:28;;;;;;;52.33;22.48;;;;;;;2.85;100.00;100066.72;5274537;33;34451;-83
2022/12/23 08:39:31;;;;;;;50.58;20.67;;;;;;;2.92;100.00;100060.72;5262177;33;32315;-83
2022/12/23 08:42:34;;;;;;;46.95;21.27;;;;;;;2.92;100.00;100059.88;5274028;33;33886;-83
2022/12/23 08:45:37;;;;;;;52.53;22.85;;;;;;;2.77;100.00;100055.94;5272758;33;33627;-83
2022/12/23 08:48:40;;;;;;;42.92;21.08;;;;;;;2.82;100.00;100067.00;5270271;33;32695;-83
2022/12/23 08:51:50;;;;;;;;;;;;;;;2.74;100.00;100051.72;5272628;33;34549;-82
2022/12/23 08:54:53;;;;;;;46.10;20.85;;;;;;;2.73;100.00;100042.91;5273992;33;34792;-83
2022/12/23 08:57:56;;;;;;;53.28;22.17;;;;;;;2.80;100.00;100037.88;5259958;33;32468;-84
2022/12/23 09:01:04;;;;;;;45.20;20.27;;;;;;;2.71;100.00;100017.44;5272498;33;34620;-88
2022/12/23 09:04:07;;;;;;;50.30;20.83;;;;;;;2.63;100.00;100010.16;5258200;33;32522;-88
2022/12/23 09:07:10;;;;;;;43.65;19.55;;;;;;;2.69;100.00;100004.28;5258523;33;35798;-84
2022/12/23 09:10:14;;;;;;;49.00;21.12;;;;;;;2.95;100.00;100027.69;5272779;33;34041;-84
2022/12/23 09:13:17;;;;;;;50.42;22.17;;;;;;;3.04;100.00;100028.69;5272314;33;34147;-84
2022/12/23 09:16:33;;;;;;;47.45;21.37;;;;;;;3.22;100.00;100035.03;5258338;33;32423;-83
2022/12/23 09:19:36;;;;;;;48.60;20.75;;;;;;;3.13;100.00;100034.03;5253449;33;32426;-84
2022/12/23 09:22:38;;;;;;;50.55;22.50;;;;;;;3.20;100.00;100044.97;5243187;33;32752;-84
2022/12/23 09:25:42;;;;;;;50.45;23.27;;;;;;;3.18;100.00;100047.75;5272181;33;34248;-83
2022/12/23 09:28:44;;;;;;;47.25;22.25;;;;;;;3.06;100.00;100048.00;5272615;33;33830;-83
2022/12/23 09:31:47;;;;;;;48.28;22.67;;;;;;;3.11;100.00;100045.78;5272367;33;33638;-84
2022/12/23 09:34:50;;;;;;;50.92;24.35;;;;;;;3.19;100.00;100037.97;5276736;33;33879;-84
2022/12/23 09:37:53;;;;;;;54.70;24.42;;;;;;;3.18;100.00;100036.25;5273450;33;34898;-84
2022/12/23 09:41:25;;;;;;;51.60;24.98;;;;;;;3.13;100.00;100022.53;5273638;33;33323;-84
2022/12/23 09:44:43;;;;;;;51.55;22.80;;;;;;;3.22;100.00;100027.03;5277063;33;35420;-84
2022/12/23 09:47:46;;;;;;;49.17;24.63;;;;;;;3.41;100.00;100016.37;5272989;33;33510;-84
2022/12/23 09:50:52;;;;;;;54.85;24.42;;;;;;;3.39;100.00;100013.03;5270975;33;33945;-84
2022/12/23 09:54:06;;;;;;;52.78;22.05;;;;;;;3.42;100.00;100014.56;5271208;33;33780;-84
2022/12/23 09:57:27;;;;;;;48.00;21.65;;;;;;;3.44;100.00;100022.41;5271750;33;34348;-84
2022/12/23 10:00:42;;;;;;;47.92;22.23;;;;;;;3.26;100.00;100033.75;5271651;33;34608;-84
2022/12/23 10:04:05;;;;;;;42.58;20.73;;;;;;;3.37;100.00;100024.81;5271198;33;33498;-88
2022/12/23 10:07:47;;;;;;;40.33;21.42;;;;;;;3.45;100.00;100013.44;5255930;33;32331;-85
2022/12/23 10:10:57;;;;;;;41.13;20.35;;;;;;;3.20;100.00;99998.91;5278118;33;34085;-84
2022/12/23 10:14:09;;;;;;;45.20;19.40;;;;;;;3.10;100.00;99982.91;5271993;33;33875;-84
2022/12/23 10:17:20;;;;;;;41.88;19.60;;;;;;;2.91;100.00;99973.13;5270189;33;34371;-84
2022/12/23 10:21:06;;;;;;;36.63;18.73;;;;;;;3.10;100.00;99974.94;5240777;33;33396;-84
2022/12/23 10:24:34;;;;;;;39.35;19.10;;;;;;;3.23;100.00;99980.81;5259308;33;33985;-84
2022/12/23 10:27:39;;;;;;;44.40;19.48;;;;;;;3.40;100.00;99969.47;5271143;33;34441;-84
2022/12/23 10:30:50;;;;;;;39.65;20.15;;;;;;;3.23;100.00;99972.00;5256139;33;33340;-88
2022/12/23 10:34:24;;;;;;;45.20;22.25;;;;;;;3.39;100.00;99972.25;5270359;33;33806;-84
2022/12/23 10:37:33;;;;;;;39.67;20.65;;;;;;;3.28;100.00;99965.28;5269502;33;33773;-84
2022/12/23 10:41:03;;;;;;;41.85;20.45;;;;;;;3.33;100.00;99960.38;5272262;33;34255;-84
2022/12/23 10:44:17;;;;;;;46.10;20.98;;;;;;;3.45;100.00;99950.41;5257346;33;32644;-84
2022/12/23 10:47:44;;;;;;;44.42;19.65;;;;;;;3.46;100.00;99948.63;5266050;33;34545;-84
2022/12/23 10:51:24;;;;;;;43.50;21.75;;;;;;;3.37;100.00;99959.12;5271795;33;33889;-84
2022/12/23 10:54:31;;;;;;;46.03;20.73;;;;;;;3.32;100.00;99955.19;5270114;33;33966;-84
2022/12/23 10:57:34;;;;;;;46.40;20.70;;;;;;;3.33;100.00;99944.41;5271310;33;34712;-88
2022/12/23 11:00:44;;;;;;;44.42;22.08;;;;;;;3.18;100.00;99948.47;5258352;33;31960;-88
2022/12/23 11:03:53;;;;;;;48.83;21.80;;;;;;;3.15;100.00;99951.44;5275639;33;33542;-84
2022/12/23 11:06:57;;;;;;;44.28;21.33;;;;;;;3.06;100.00;99950.44;5264830;33;32850;-85
2022/12/23 11:10:24;;;;;;;51.63;24.60;;;;;;;3.07;100.00;99956.59;5272593;33;34706;-84
2022/12/23 11:13:39;;;;;;;46.97;23.75;;;;;;;3.28;100.00;99954.66;5258232;33;32730;-84
2022/12/23 11:16:44;;;;;;;50.92;23.25;;;;;;;3.45;100.00;99946.91;5271121;33;34223;-84
2022/12/23 11:20:07;;;;;;;47.42;23.00;;;;;;;3.33;100.00;99941.75;5258462;33;32130;-83
2022/12/23 11:23:32;;;;;;;49.10;23.40;;;;;;;3.31;100.00;99943.72;5257979;33;32134;-83
2022/12/23 11:26:35;;;;;;;53.30;23.50;;;;;;;3.25;100.00;99936.31;5274125;33;34195;-84
2022/12/23 11:29:50;;;;;;;48.47;22.83;;;;;;;3.49;100.00;99929.69;5275200;33;34098;-83
2022/12/23 11:32:54;;;;;;;50.03;22.62;;;;;;;3.36;100.00;99933.50;5276524;33;33482;-83
2022/12/23 11:36:03;;;;;;;51.67;22.15;;;;;;;3.38;100.00;99928.84;5263749;33;32199;-83
2022/12/23 11:39:09;;;;;;;53.38;22.55;;;;;;;3.48;100.00;99941.31;5273816;33;33639;-83
2022/12/23 11:42:17;;;;;;;54.75;23.87;;;;;;;3.53;100.00;99941.72;5280401;33;33988;-83
2022/12/23 11:45:22;;;;;;;47.17;21.98;;;;;;;3.49;100.00;99949.16;5265686;33;32469;-83
2022/12/23 11:48:28;;;;;;;51.22;23.20;;;;;;;3.53;100.00;99941.72;5274012;33;33943;-87
2022/12/23 11:51:31;;;;;;;51.53;22.37;;;;;;;3.63;100.00;99942.56;5274968;33;33520;-84
2022/12/23 11:54:34;;;;;;;47.78;23.55;;;;;;;3.59;100.00;99944.62;5269613;33;33324;-84
2022/12/23 11:57:48;;;;;;;52.08;26.17;;;;;;;3.69;100.00;99941.97;5279723;33;35098;-83
2022/12/23 12:00:59;;;;;;;51.03;24.52;;;;;;;3.80;100.00;99940.94;5273586;33;34530;-83
2022/12/23 12:04:06;;;;;;;51.72;24.67;;;;;;;3.82;100.00;99963.78;5273399;33;35029;-83
2022/12/23 12:07:13;;;;;;;48.65;23.15;;;;;;;3.78;100.00;99949.09;5260111;33;32626;-83
2022/12/23 12:10:28;;;;;;;54.70;25.33;;;;;;;3.76;100.00;99960.88;5272121;33;34271;-83
2022/12/23 12:13:40;;;;;;;57.53;24.52;;;;;;;3.81;100.00;99961.28;5272277;33;34088;-83
2022/12/23 12:16:57;;;;;;;56.72;24.45;;;;;;;3.72;100.00;99951.50;5271357;33;33450;-83
2022/12/23 12:20:11;;;;;;;52.60;23.25;;;;;;;3.83;100.00;99960.16;5272108;33;34379;-83
2022/12/23 12:23:28;;;;;;;50.22;24.90;;;;;;;3.87;100.00;99944.72;5274214;33;33754;-84
2022/12/23 12:26:35;;;;;;;55.95;24.95;;;;;;;3.96;100.00;99946.50;5273058;33;33907;-83
2022/12/23 12:29:45;;;;;;;54.58;24.35;;;;;;;3.92;100.00;99949.59;5272240;33;33479;-83
2022/12/23 12:32:57;;;;;;;52.60;22.90;;;;;;;4.01;100.00;99946.91;5256268;33;33491;-84
2022/12/23 12:36:05;;;;;;;53.45;23.90;;;;;;;3.99;100.00;99956.03;5270859;33;34035;-84
2022/12/23 12:39:22;;;;;;;53.03;24.37;;;;;;;4.01;100.00;99944.25;5271704;33;34245;-83
2022/12/23 12:42:39;;;;;;;54.97;25.33;;;;;;;3.91;100.00;99947.94;5272051;33;34825;-84
2022/12/23 12:45:51;;;;;;;52.97;23.73;;;;;;;3.99;100.00;99954.19;5271985;33;33851;-84
2022/12/23 12:48:58;;;;;;;55.85;26.25;;;;;;;4.05;100.00;99942.13;5272338;33;34233;-84
2022/12/23 12:52:12;;;;;;;51.17;23.87;;;;;;;4.09;100.00;99936.38;5273355;33;34671;-84
2022/12/23 12:55:36;;;;;;;60.33;24.70;;;;;;;4.01;100.00;99944.25;5259710;33;33262;-84
2022/12/23 12:58:39;;;;;;;60.45;26.65;;;;;;;4.09;100.00;99947.03;5273439;33;34216;-83
2022/12/23 13:02:10;;;;;;;60.88;27.40;;;;;;;4.13;100.00;99944.06;5274403;33;33804;-83
2022/12/23 13:05:23;;;;;;;58.40;25.70;;;;;;;4.11;100.00;99944.19;5272501;33;33847;-84
2022/12/23 13:08:45;;;;;;;60.30;27.05;;;;;;;4.20;100.00;99948.63;5272668;33;34734;-83
2022/12/23 13:12:00;;;;;;;56.78;24.77;;;;;;;4.37;100.00;99946.19;5280799;33;34528;-84
2022/12/23 13:15:21;;;;;;;57.67;27.35;;;;;;;4.35;100.00;99949.00;5286632;33;34037;-84
2022/12/23 13:18:47;;;;;;;54.78;23.65;;;;;;;4.42;100.00;99958.09;5285913;33;33803;-84
2022/12/23 13:22:05;;;;;;;61.03;25.23;;;;;;;4.50;100.00;99955.53;5273539;33;33328;-84
2022/12/23 13:25:24;;;;;;;60.10;25.58;;;;;;;4.36;100.00;99956.00;5272648;33;32833;-83
2022/12/23 13:28:38;;;;;;;52.60;25.27;;;;;;;4.37;100.00;99955.03;5279510;33;34036;-84
2022/12/23 13:31:53;;;;;;;59.83;26.62;;;;;;;4.47;100.00;99958.44;5272621;33;33963;-83
2022/12/23 13:35:11;;;;;;;64.75;27.33;;;;;;;4.50;100.00;99947.53;5272557;33;35363;-83
2022/12/23 13:38:51;;;;;;;58.42;26.67;;;;;;;4.47;100.00;99949.63;5258261;33;33033;-83
2022/12/23 13:41:59;;;;;;;59.47;27.20;;;;;;;4.26;100.00;99953.38;5273821;33;35262;-84
2022/12/23 13:45:15;;;;;;;57.03;25.65;;;;;;;4.25;100.00;99946.38;5273172;33;33522;-88
2022/12/23 13:48:51;;;;;;;55.38;24.00;;;;;;;4.22;100.00;99952.00;5258701;33;32643;-84
2022/12/23 13:52:02;;;;;;;58.22;25.60;;;;;;;4.25;100.00;99961.53;5272697;33;33918;-84
2022/12/23 13:55:25;;;;;;;55.88;26.23;;;;;;;4.31;100.00;99955.63;5259942;33;33167;-83
2022/12/23 13:58:32;;;;;;;56.15;25.80;;;;;;;4.32;100.00;99957.28;5272254;33;34232;-83
2022/12/23 14:01:45;;;;;;;60.63;25.73;;;;;;;4.37;100.00;99954.19;5271605;33;34221;-83
2022/12/23 14:04:54;;;;;;;51.72;22.62;;;;;;;4.35;100.00;99948.16;5271751;33;34353;-83
2022/12/23 14:07:58;;;;;;;55.90;25.35;;;;;;;4.35;100.00;99946.31;5271276;33;33534;-84
2022/12/23 14:11:14;;;;;;;56.90;26.15;;;;;;;4.36;100.00;99948.03;5271210;33;33929;-83
2022/12/23 14:14:53;;;;;;;56.80;25.88;;;;;;;4.34;100.00;99955.31;5271177;33;35101;-83
2022/12/23 14:18:33;;;;;;;61.05;26.58;;;;;;;4.25;100.00;99957.03;5271682;33;34427;-88
2022/12/23 14:22:02;;;;;;;62.88;24.48;;;;;;;4.19;100.00;99952.31;5271140;33;33953;-84
2022/12/23 14:25:45;;;;;;;58.83;25.40;;;;;;;4.27;100.00;99960.41;5271323;33;33940;-84
2022/12/23 14:29:05;;;;;;;58.47;24.05;;;;;;;4.25;100.00;99962.37;5258453;33;32578;-83
2022/12/23 14:32:25;;;;;;;62.25;27.67;;;;;;;4.25;100.00;99962.37;5271120;33;33677;-83
2022/12/23 14:35:30;;;;;;;;;;;;;;;4.26;100.00;99957.88;5271658;33;34231;-83
2022/12/23 14:39:12;;;;;;;59.58;25.52;;;;;;;4.22;100.00;99961.84;5258503;33;34622;-83
2022/12/23 14:42:38;;;;;;;55.30;24.00;;;;;;;4.24;100.00;99975.81;5270967;33;34014;-84
